Pagrindinis puslapis
METAR-TAF:

METAR-TAF

Oro uostai :

Bara do Garsasas, Mato Grosas, Brazilija

platuma: 15-52S, ilguma: 052-23W, Aukštis: 350 m

Dabartinis oras

Ataskaita buvo paskelbta 2 valandos ir 23 minutes, ne 20:00 UTC
Ramus vėjas
Temperatūra 31°C
Drėgmė 36%
Slėgis 1015 hPa
Matomumas 10 km arba daugiau
nėra debesų žemiau 1500 m ir nėra kamuolinių lietaus debesų

METAR: SBBW 302000Z 00000KT CAVOK 31/14 Q1015

Laikas: 18:23 (22:23 UTC)

Prognozė

Ataskaita buvo paskelbta 7 valandos ir 23 minutes, ne 15:00 UTC
Prognozė galioja nuo 30 metu 18 UTC su 31 metu 06 UTC
Vėjas 3 kt iš Pietų/Pietryčių
Matomumas 10 km arba daugiau
nėra debesų žemiau 1500 m ir nėra kamuolinių lietaus debesų
Tapsmas
nuo 30 metu 20 UTC su 30 metu 22 UTC
Vėjas kt iš Šiaurės

TAF: SBBW 301500Z 3018/3106 15003KT CAVOK TX31/3018Z TN15/3106Z BECMG 3020/3022 00000KT RMK PEH

Orai ataskaitas ir orų prognozės (METAR, TAF).

turimą stotys yra geltonos ir raudonos taškus žemėlapyje.

Perkelti pele per norėdami pamatyti stoties vardą.

Tada spustelėkite, norėdami matyti oro stebėjimo ir prognozės.

Norėdami pakeisti žemėlapį: spustelėkite ant žalios mygtukų su juodo kryžiaus žemyn,; žalią mygtuką su brūkšneliu, jei norite nutolinti; arba žalių rodyklių gretimoms žemėlapius.


METAR-TAF: